SBSR Informações do Aeroporto

Informações da Pista
Pista 7 Comprimento 5381 ft Largura 115 ft
Elevação 0 ft Limite 0 ft Heading 0
Pista 25 Comprimento 5381 ft Largura 115 ft
Elevação 0 ft Limite 0 ft Heading 0
Frequências do Aeroporto
Tipo AFIS Nome RDO Frequência 130.85 MHZ
Navaids do Aeroporto
Tipo NDB Nome Rio Preto Frequência 420 KHZ
Informações meteorológicas do aeroporto e NOTAM
ADDS - METARS form results

(1020 UTC 19 September 2019)
Data provider http://aviationweather.gov/metar/data/
 
METAR text: SBSR 191000Z 03003KT 7000 NSC 25/15 Q1010
Conditions at: SBSR (SAO JOSE PRETO , BR) observed 1000 UTC 19 September 2019
Temperature: 25.0°C (77°F)
Dewpoint: 15.0°C (59°F) [RH = 54%]
Pressure (altimeter): 29.82 inches Hg (1010.0 mb)
Winds: from the NNE (30 degrees) at 3 MPH (3 knots; 1.5 m/s)
Visibility: 4 miles ( 7 km)
Ceiling: at least 12,000 feet AGL
Clouds: sky clear below 12,000 feet AGL
Weather: no significant weather observed at this time